createdAt,value
2018-12-05T05:31:27.111Z,24.95
2018-12-05T05:33:55.638Z,19.42
2018-12-05T05:36:24.207Z,29.82
2018-12-05T05:38:53.006Z,22.73
2018-12-05T05:41:21.444Z,25.05
2018-12-05T05:43:49.980Z,25.80
2018-12-05T05:46:18.526Z,22.55
2018-12-05T05:48:47.131Z,27.00
2018-12-05T05:51:15.898Z,22.45
2018-12-05T05:53:44.446Z,22.05
2018-12-05T05:56:12.826Z,21.87
2018-12-05T05:58:41.246Z,21.07
2018-12-05T06:01:09.718Z,22.80
2018-12-05T06:03:38.286Z,25.43
2018-12-05T06:06:06.830Z,24.15
2018-12-05T06:08:35.302Z,17.50
2018-12-05T06:11:04.190Z,21.65
2018-12-05T06:13:32.734Z,19.07
2018-12-05T06:16:01.364Z,21.37
2018-12-05T06:18:29.907Z,20.82
2018-12-05T06:20:58.335Z,19.15
2018-12-05T06:23:26.820Z,21.15
2018-12-05T06:40:03.446Z,20.17
2018-12-05T06:42:31.936Z,20.80
2018-12-05T06:45:00.554Z,21.70
2018-12-05T06:47:29.012Z,18.55
2018-12-05T06:49:57.508Z,22.77
2018-12-05T06:52:25.964Z,18.60
2018-12-05T06:54:54.387Z,19.48
2018-12-05T06:57:22.766Z,17.55
2018-12-05T07:00:09.418Z,23.20
2018-12-05T07:02:37.873Z,22.07
2018-12-05T07:05:13.279Z,20.50
2018-12-05T08:20:01.925Z,16.25
2018-12-05T08:22:30.473Z,16.52
2018-12-05T08:24:58.940Z,12.25
2018-12-05T08:27:27.329Z,13.88
2018-12-05T08:29:55.727Z,14.03
2018-12-05T08:32:24.207Z,14.87
2018-12-05T08:59:26.128Z,17.92
2018-12-05T09:01:54.594Z,20.43
2018-12-05T09:04:23.004Z,17.82
2018-12-05T09:06:51.524Z,16.27
2018-12-05T09:09:20.020Z,17.10
2018-12-05T09:11:48.398Z,20.95
2018-12-05T09:14:16.814Z,19.27
2018-12-05T09:16:45.323Z,17.05
2018-12-05T09:19:13.742Z,18.75
2018-12-05T09:21:42.159Z,20.55
2018-12-05T09:24:10.540Z,16.35
2018-12-05T09:26:38.909Z,18.40
2018-12-05T09:29:07.493Z,24.55
2018-12-05T09:31:35.892Z,23.65
2018-12-05T09:34:04.367Z,21.27
2018-12-05T09:36:32.796Z,17.50
2018-12-05T09:39:01.329Z,20.20
2018-12-05T09:41:29.745Z,20.30
2018-12-05T09:43:58.189Z,25.12
2018-12-05T09:46:26.579Z,23.98
2018-12-05T09:48:55.124Z,18.40
2018-12-05T09:51:23.523Z,14.98
2018-12-05T09:53:51.957Z,22.67
2018-12-05T09:56:20.453Z,22.52
2018-12-05T09:58:48.804Z,18.70
2018-12-05T10:01:17.146Z,20.32
2018-12-05T10:03:45.516Z,18.45
2018-12-05T10:06:13.917Z,16.23
2018-12-05T10:08:42.310Z,19.42
2018-12-05T10:11:10.765Z,19.98
2018-12-05T10:13:39.114Z,23.25
2018-12-05T10:16:07.529Z,17.12
2018-12-05T10:18:35.905Z,22.17
2018-12-05T10:21:04.449Z,18.70
2018-12-05T10:23:32.865Z,22.17
2018-12-05T10:26:01.331Z,17.60
2018-12-05T10:28:29.821Z,19.00
2018-12-05T10:30:58.237Z,15.32
2018-12-05T10:33:26.609Z,16.70
2018-12-05T10:35:55.013Z,17.12
2018-12-05T10:38:23.475Z,17.60
2018-12-05T10:40:51.911Z,19.80
2018-12-05T10:43:20.445Z,15.90
2018-12-05T10:45:48.852Z,19.25
2018-12-05T10:48:17.421Z,19.40
2018-12-05T10:50:45.769Z,18.45
2018-12-05T10:53:14.227Z,15.48
2018-12-05T10:55:42.694Z,16.87
2018-12-05T10:58:11.121Z,16.00
2018-12-05T11:00:45.001Z,16.40
2018-12-05T11:03:17.386Z,15.68
2018-12-05T11:05:51.185Z,14.63
2018-12-05T11:08:24.886Z,17.35
2018-12-05T11:10:58.674Z,17.40
2018-12-05T11:13:32.384Z,15.53
2018-12-05T11:16:06.180Z,18.98
2018-12-05T11:18:39.873Z,18.95
2018-12-05T11:21:13.634Z,16.70
2018-12-05T11:23:47.630Z,26.73
2018-12-05T11:26:19.525Z,19.90
2018-12-05T11:28:47.934Z,15.48
2018-12-05T11:31:16.340Z,19.57
2018-12-05T11:33:44.800Z,19.75
2018-12-05T11:36:13.359Z,24.43
2018-12-05T11:38:41.748Z,17.92
2018-12-05T11:41:10.165Z,20.02
2018-12-05T11:43:38.734Z,22.98
2018-12-05T11:46:07.185Z,15.78
2018-12-05T11:48:35.590Z,23.42
2018-12-05T11:51:04.357Z,18.23
2018-12-05T11:53:32.770Z,20.43
2018-12-05T11:56:01.233Z,20.05
2018-12-05T11:58:29.615Z,20.77
2018-12-05T12:00:57.974Z,16.70
2018-12-05T12:03:26.374Z,16.65
2018-12-05T12:05:54.803Z,16.30
2018-12-05T12:08:23.193Z,22.02
2018-12-05T12:10:51.645Z,25.02
2018-12-05T12:13:20.059Z,25.43
2018-12-05T12:15:48.541Z,18.57
2018-12-05T12:18:16.927Z,21.50
2018-12-05T12:20:45.566Z,21.00
2018-12-05T12:23:14.000Z,22.05
2018-12-05T12:25:42.485Z,18.73
2018-12-05T12:28:10.907Z,20.57
2018-12-05T12:30:39.276Z,22.67
2018-12-05T12:47:20.904Z,21.62
2018-12-05T12:49:49.304Z,23.20
2018-12-05T12:52:17.681Z,22.17
2018-12-05T12:54:46.083Z,18.52
2018-12-05T12:57:14.553Z,24.98
2018-12-05T12:59:43.047Z,18.77
2018-12-05T13:02:11.508Z,15.53
2018-12-05T13:18:52.743Z,22.48
2018-12-05T13:21:21.216Z,18.37
2018-12-05T13:23:49.651Z,23.50
2018-12-05T13:26:18.067Z,22.50
2018-12-05T13:42:59.650Z,20.80
2018-12-05T13:45:28.138Z,21.20
2018-12-05T13:47:56.657Z,18.52
2018-12-05T13:50:25.071Z,19.23
2018-12-05T13:52:53.545Z,23.85
2018-12-05T13:55:22.053Z,28.15
2018-12-05T13:57:50.468Z,20.45
2018-12-05T14:00:18.867Z,21.07
2018-12-05T14:02:47.260Z,17.80
2018-12-05T14:05:15.737Z,22.15
2018-12-05T14:07:44.148Z,17.95
2018-12-05T14:10:12.622Z,22.65
2018-12-05T14:12:41.019Z,18.37
2018-12-05T14:15:10.527Z,25.48
2018-12-05T14:17:39.009Z,21.17
2018-12-05T14:20:08.882Z,18.98
2018-12-05T14:22:37.325Z,19.73
2018-12-05T14:25:07.032Z,22.30
2018-12-05T14:27:35.683Z,20.85
2018-12-05T14:30:05.103Z,17.55
2018-12-05T14:53:05.981Z,17.95
2018-12-05T14:55:34.445Z,18.73
2018-12-05T14:58:02.999Z,23.62
2018-12-05T15:00:31.504Z,20.32
2018-12-05T15:03:00.021Z,19.12
2018-12-05T15:05:28.506Z,21.27
2018-12-05T15:07:56.948Z,21.87
2018-12-05T15:10:26.367Z,25.32
2018-12-05T15:12:54.817Z,22.82
2018-12-05T15:15:23.401Z,19.55
2018-12-05T15:17:51.816Z,22.20
2018-12-05T15:20:20.318Z,21.27
2018-12-05T15:22:48.777Z,21.87
2018-12-05T15:25:17.180Z,24.02
2018-12-05T15:27:45.957Z,24.35
2018-12-05T15:30:14.418Z,21.40
2018-12-05T15:32:42.971Z,21.48
2018-12-05T15:35:11.349Z,19.60
2018-12-05T15:37:40.179Z,26.42
2018-12-05T15:40:08.922Z,23.52
2018-12-05T15:42:37.412Z,26.17
2018-12-05T15:45:07.268Z,24.72
2018-12-05T15:47:36.438Z,24.87
2018-12-05T15:50:06.975Z,21.95
2018-12-05T15:52:35.579Z,21.50
2018-12-05T15:55:04.289Z,27.85
2018-12-05T15:57:32.709Z,29.00
2018-12-05T16:00:01.172Z,28.62
2018-12-05T16:02:29.620Z,24.77
2018-12-05T16:04:58.308Z,25.90
2018-12-05T16:07:26.834Z,25.30
2018-12-05T16:09:55.362Z,23.95
2018-12-05T16:12:23.773Z,24.63
2018-12-05T16:14:52.194Z,23.62
2018-12-05T16:17:20.706Z,25.55
2018-12-05T16:19:49.152Z,26.15
2018-12-05T16:22:17.608Z,28.15
2018-12-05T16:24:46.034Z,26.27
2018-12-05T16:27:14.927Z,25.45
2018-12-05T16:29:43.403Z,29.60
2018-12-05T16:32:11.882Z,24.32
2018-12-05T16:34:40.370Z,21.95
2018-12-05T16:37:08.809Z,24.35
2018-12-05T16:39:37.353Z,28.02
2018-12-05T16:42:05.907Z,27.98
2018-12-05T16:44:34.461Z,26.85
2018-12-05T16:47:02.853Z,25.40
2018-12-05T16:49:31.382Z,24.90
2018-12-05T16:51:59.814Z,26.62
2018-12-05T16:54:28.628Z,23.65
2018-12-05T16:56:57.321Z,26.85
2018-12-05T16:59:25.805Z,25.12
2018-12-05T17:01:54.237Z,23.07
2018-12-05T17:04:22.715Z,24.87
2018-12-05T17:06:51.201Z,27.32
2018-12-05T17:09:26.112Z,23.25
2018-12-05T17:11:52.623Z,23.60
2018-12-05T17:14:21.237Z,22.52
2018-12-05T17:16:49.686Z,23.15
2018-12-05T17:19:19.592Z,21.07
2018-12-05T17:21:48.682Z,24.20
2018-12-05T17:24:17.551Z,31.62
2018-12-05T17:26:46.533Z,28.05
2018-12-05T17:29:16.448Z,22.40
2018-12-05T17:31:44.937Z,25.95
2018-12-05T17:34:13.818Z,23.55
2018-12-05T17:36:42.328Z,23.05
2018-12-05T17:39:10.783Z,24.65
2018-12-05T17:41:39.301Z,25.45
2018-12-05T17:44:09.028Z,25.25
2018-12-05T17:46:37.347Z,25.57
2018-12-05T17:49:05.904Z,24.43
2018-12-05T17:51:34.337Z,24.67
2018-12-05T17:54:03.429Z,26.25
2018-12-05T17:56:32.798Z,22.32
2018-12-05T17:59:01.231Z,23.47
2018-12-05T18:01:29.780Z,22.10
2018-12-05T18:03:58.694Z,26.68
2018-12-05T18:06:27.293Z,29.18
2018-12-05T18:08:55.924Z,24.25
2018-12-05T18:11:24.962Z,24.35
2018-12-05T18:13:53.382Z,25.43
2018-12-05T18:16:21.826Z,23.05
2018-12-05T18:18:50.294Z,24.65
2018-12-05T18:21:18.814Z,25.52
2018-12-05T18:23:47.807Z,21.27
2018-12-05T18:26:16.298Z,22.20
2018-12-05T18:28:44.822Z,27.07
2018-12-05T18:31:13.403Z,21.20
2018-12-05T18:33:41.884Z,26.62
2018-12-05T18:36:10.310Z,25.30
2018-12-05T18:38:38.734Z,24.02
2018-12-05T18:41:07.325Z,27.00
2018-12-05T18:43:36.458Z,23.95
2018-12-05T18:46:05.038Z,21.65
2018-12-05T18:48:33.602Z,24.12
2018-12-05T18:51:02.072Z,22.80
2018-12-05T18:53:30.561Z,22.82
2018-12-05T18:55:59.820Z,32.95
2018-12-05T18:58:28.380Z,20.72
2018-12-05T19:00:56.832Z,21.68
2018-12-05T19:03:25.444Z,22.05
2018-12-05T19:05:53.981Z,22.30
2018-12-05T19:08:22.763Z,24.37
2018-12-05T19:10:51.238Z,25.35
2018-12-05T19:13:21.445Z,23.07
2018-12-05T19:15:50.076Z,22.40
2018-12-05T19:18:18.679Z,22.98
2018-12-05T19:20:47.228Z,24.90
2018-12-05T19:23:15.817Z,23.62
2018-12-05T19:25:45.292Z,27.55
2018-12-05T19:28:13.859Z,26.75
2018-12-05T19:30:42.459Z,23.55
2018-12-05T19:33:11.012Z,24.70
2018-12-05T19:35:39.693Z,27.82
2018-12-05T19:38:08.402Z,22.82
2018-12-05T19:40:36.973Z,22.48
2018-12-05T19:43:05.975Z,25.77
2018-12-05T19:45:36.067Z,22.60
2018-12-05T19:48:04.712Z,25.68
2018-12-05T19:50:33.137Z,22.25
2018-12-05T19:53:01.729Z,27.27
2018-12-05T19:55:30.419Z,26.30
2018-12-05T19:57:59.014Z,23.85
2018-12-05T20:00:27.907Z,21.93
2018-12-05T20:02:56.661Z,23.90
2018-12-05T20:05:25.365Z,24.98
2018-12-05T20:07:53.935Z,29.87
2018-12-05T20:10:22.558Z,26.50
2018-12-05T20:12:51.394Z,25.10
2018-12-05T20:15:19.955Z,27.13
2018-12-05T20:17:48.460Z,24.10
2018-12-05T20:20:17.588Z,23.10
2018-12-05T20:22:46.295Z,27.70
2018-12-05T20:25:14.865Z,21.90
2018-12-05T20:27:44.187Z,28.95
2018-12-05T20:30:12.919Z,26.73
2018-12-05T20:32:41.565Z,22.77
2018-12-05T20:35:10.695Z,27.52
2018-12-05T20:37:39.773Z,22.75
2018-12-05T20:40:08.612Z,25.20
2018-12-05T20:42:37.796Z,27.22
2018-12-05T20:45:06.649Z,24.47
2018-12-05T20:47:35.757Z,25.20
2018-12-05T20:50:05.101Z,22.85
2018-12-05T20:52:34.830Z,24.80
2018-12-05T20:55:03.434Z,22.90
2018-12-05T20:57:31.904Z,24.98
2018-12-05T21:00:02.344Z,25.52
2018-12-05T21:02:30.809Z,24.27
2018-12-05T21:04:59.364Z,24.45
2018-12-05T21:07:28.158Z,26.87
2018-12-05T21:09:56.961Z,26.05
2018-12-05T21:12:25.426Z,25.15
2018-12-05T21:14:54.238Z,29.40
2018-12-05T21:17:22.669Z,25.72
2018-12-05T21:19:51.796Z,29.10
2018-12-05T21:22:20.300Z,28.70
2018-12-05T21:24:48.749Z,22.37
2018-12-05T21:27:19.170Z,29.48
2018-12-05T21:29:47.860Z,24.65
2018-12-05T21:32:16.616Z,23.57
2018-12-05T21:34:45.154Z,24.05
2018-12-05T21:37:15.354Z,25.60
2018-12-05T21:39:44.028Z,23.35
2018-12-05T21:42:12.813Z,25.23
2018-12-05T21:44:42.966Z,23.32
2018-12-05T21:47:13.074Z,30.10
2018-12-05T21:49:42.290Z,25.52
2018-12-05T21:52:11.526Z,27.85
2018-12-05T21:54:40.649Z,28.42
2018-12-05T21:57:09.909Z,26.95
2018-12-05T21:59:39.411Z,28.12
2018-12-05T22:02:09.314Z,26.60
2018-12-05T22:04:37.816Z,27.00
2018-12-05T22:07:06.710Z,24.10
2018-12-05T22:09:35.332Z,26.48
2018-12-05T22:12:03.906Z,29.55
2018-12-05T22:14:32.644Z,27.20
2018-12-05T22:17:01.493Z,33.30
2018-12-05T22:19:29.923Z,29.40
2018-12-05T22:21:58.328Z,34.13
2018-12-05T22:24:26.826Z,26.10
2018-12-05T22:26:55.433Z,31.75
2018-12-05T22:29:23.853Z,26.05
2018-12-05T22:31:52.281Z,31.27
2018-12-05T22:34:20.733Z,29.48
2018-12-05T22:36:49.239Z,32.40
2018-12-05T22:39:17.654Z,28.75
2018-12-05T22:41:46.114Z,33.25
2018-12-05T22:44:14.529Z,26.10
2018-12-05T22:46:42.951Z,31.97
2018-12-05T22:49:11.331Z,26.27
2018-12-05T22:51:39.890Z,28.45
2018-12-05T22:54:08.286Z,29.35
2018-12-05T22:56:36.882Z,26.82
2018-12-05T22:59:05.355Z,30.97
2018-12-05T23:01:33.797Z,33.78
2018-12-05T23:04:02.794Z,32.03
2018-12-05T23:06:31.230Z,30.60
2018-12-05T23:08:59.674Z,30.35
2018-12-05T23:11:28.298Z,30.15
2018-12-05T23:13:56.748Z,39.00
2018-12-05T23:16:25.165Z,32.05
2018-12-05T23:18:53.565Z,36.53
2018-12-05T23:21:21.958Z,34.27
2018-12-05T23:23:51.025Z,31.15
2018-12-05T23:26:19.505Z,34.67
2018-12-05T23:28:47.913Z,35.50
2018-12-05T23:31:16.289Z,37.40
2018-12-05T23:33:44.777Z,39.27
2018-12-05T23:36:13.236Z,36.50
2018-12-05T23:38:41.802Z,36.15
2018-12-05T23:41:10.271Z,34.30
2018-12-05T23:43:38.693Z,35.70
2018-12-05T23:46:07.157Z,34.60
2018-12-05T23:48:35.595Z,32.13
2018-12-05T23:51:04.052Z,33.58
2018-12-05T23:53:32.508Z,32.83
2018-12-05T23:56:01.725Z,32.63
2018-12-05T23:58:30.206Z,35.15
